sensor_id;sensor_type;location;lat;lon;timestamp;P1;durP1;ratioP1;P2;durP2;ratioP2
41817;SDS011;27493;51.730;5.294;2023-02-28T00:02:03;8.03;;;5.73;;
41817;SDS011;27493;51.730;5.294;2023-02-28T00:04:28;9.97;;;5.60;;
41817;SDS011;27493;51.730;5.294;2023-02-28T00:06:53;9.97;;;6.10;;
41817;SDS011;27493;51.730;5.294;2023-02-28T00:09:19;8.57;;;5.90;;
41817;SDS011;27493;51.730;5.294;2023-02-28T00:11:44;8.70;;;6.00;;
41817;SDS011;27493;51.730;5.294;2023-02-28T00:14:09;7.20;;;5.47;;
41817;SDS011;27493;51.730;5.294;2023-02-28T00:16:34;9.53;;;5.90;;
41817;SDS011;27493;51.730;5.294;2023-02-28T00:18:59;7.70;;;5.43;;
41817;SDS011;27493;51.730;5.294;2023-02-28T00:21:24;6.90;;;5.27;;
41817;SDS011;27493;51.730;5.294;2023-02-28T00:23:50;6.40;;;5.17;;
41817;SDS011;27493;51.730;5.294;2023-02-28T00:26:15;6.20;;;5.30;;
41817;SDS011;27493;51.730;5.294;2023-02-28T00:28:40;7.93;;;5.57;;
41817;SDS011;27493;51.730;5.294;2023-02-28T00:31:05;9.17;;;5.77;;
41817;SDS011;27493;51.730;5.294;2023-02-28T00:33:30;9.00;;;5.70;;
41817;SDS011;27493;51.730;5.294;2023-02-28T00:36:05;7.23;;;5.53;;
41817;SDS011;27493;51.730;5.294;2023-02-28T00:38:31;9.17;;;5.63;;
41817;SDS011;27493;51.730;5.294;2023-02-28T00:40:56;8.43;;;6.33;;
41817;SDS011;27493;51.730;5.294;2023-02-28T00:43:21;10.70;;;6.00;;
41817;SDS011;27493;51.730;5.294;2023-02-28T00:45:47;9.27;;;5.40;;
41817;SDS011;27493;51.730;5.294;2023-02-28T00:48:12;7.70;;;5.83;;
41817;SDS011;27493;51.730;5.294;2023-02-28T00:50:37;9.70;;;5.63;;
41817;SDS011;27493;51.730;5.294;2023-02-28T00:53:02;7.73;;;5.53;;
41817;SDS011;27493;51.730;5.294;2023-02-28T00:55:28;7.67;;;5.37;;
41817;SDS011;27493;51.730;5.294;2023-02-28T00:57:53;7.60;;;5.40;;
41817;SDS011;27493;51.730;5.294;2023-02-28T01:00:18;7.70;;;6.20;;
41817;SDS011;27493;51.730;5.294;2023-02-28T01:02:43;10.57;;;5.30;;
41817;SDS011;27493;51.730;5.294;2023-02-28T01:05:09;7.70;;;5.30;;
41817;SDS011;27493;51.730;5.294;2023-02-28T01:07:35;8.37;;;5.40;;
41817;SDS011;27493;51.730;5.294;2023-02-28T01:10:00;6.40;;;4.73;;
41817;SDS011;27493;51.730;5.294;2023-02-28T01:12:25;7.30;;;5.00;;
41817;SDS011;27493;51.730;5.294;2023-02-28T01:14:50;6.80;;;5.00;;
41817;SDS011;27493;51.730;5.294;2023-02-28T01:17:15;7.97;;;5.03;;
41817;SDS011;27493;51.730;5.294;2023-02-28T01:19:41;7.37;;;5.13;;
41817;SDS011;27493;51.730;5.294;2023-02-28T01:22:06;7.43;;;4.60;;
41817;SDS011;27493;51.730;5.294;2023-02-28T01:24:32;7.67;;;4.73;;
41817;SDS011;27493;51.730;5.294;2023-02-28T01:26:57;6.70;;;4.93;;
41817;SDS011;27493;51.730;5.294;2023-02-28T01:29:22;5.57;;;4.30;;
41817;SDS011;27493;51.730;5.294;2023-02-28T01:31:47;5.67;;;4.63;;
41817;SDS011;27493;51.730;5.294;2023-02-28T01:34:13;6.10;;;5.07;;
41817;SDS011;27493;51.730;5.294;2023-02-28T01:36:38;6.87;;;4.77;;
41817;SDS011;27493;51.730;5.294;2023-02-28T01:39:03;5.97;;;4.93;;
41817;SDS011;27493;51.730;5.294;2023-02-28T01:41:29;8.27;;;4.97;;
41817;SDS011;27493;51.730;5.294;2023-02-28T01:44:07;8.47;;;4.73;;
41817;SDS011;27493;51.730;5.294;2023-02-28T01:46:35;6.30;;;4.83;;
41817;SDS011;27493;51.730;5.294;2023-02-28T01:49:05;7.33;;;4.73;;
41817;SDS011;27493;51.730;5.294;2023-02-28T01:51:33;6.37;;;4.63;;
41817;SDS011;27493;51.730;5.294;2023-02-28T01:54:01;8.73;;;4.90;;
41817;SDS011;27493;51.730;5.294;2023-02-28T01:56:27;7.27;;;4.57;;
41817;SDS011;27493;51.730;5.294;2023-02-28T01:58:54;8.90;;;5.63;;
41817;SDS011;27493;51.730;5.294;2023-02-28T02:01:20;7.27;;;4.80;;
41817;SDS011;27493;51.730;5.294;2023-02-28T02:03:49;6.90;;;4.80;;
41817;SDS011;27493;51.730;5.294;2023-02-28T02:06:20;7.27;;;4.97;;
41817;SDS011;27493;51.730;5.294;2023-02-28T02:08:45;8.33;;;4.90;;
41817;SDS011;27493;51.730;5.294;2023-02-28T02:11:10;6.87;;;5.33;;
41817;SDS011;27493;51.730;5.294;2023-02-28T02:13:53;9.27;;;4.83;;
41817;SDS011;27493;51.730;5.294;2023-02-28T02:21:50;8.67;;;4.97;;
41817;SDS011;27493;51.730;5.294;2023-02-28T02:32:20;6.23;;;4.57;;
41817;SDS011;27493;51.730;5.294;2023-02-28T02:37:38;7.23;;;4.87;;
41817;SDS011;27493;51.730;5.294;2023-02-28T02:42:39;8.40;;;4.80;;
41817;SDS011;27493;51.730;5.294;2023-02-28T02:45:17;9.50;;;5.00;;
41817;SDS011;27493;51.730;5.294;2023-02-28T02:47:42;8.13;;;5.07;;
41817;SDS011;27493;51.730;5.294;2023-02-28T02:50:10;6.33;;;4.80;;
41817;SDS011;27493;51.730;5.294;2023-02-28T02:52:38;7.00;;;5.07;;
41817;SDS011;27493;51.730;5.294;2023-02-28T02:55:06;7.53;;;5.77;;
41817;SDS011;27493;51.730;5.294;2023-02-28T02:57:37;6.50;;;5.07;;
41817;SDS011;27493;51.730;5.294;2023-02-28T03:00:03;9.87;;;5.20;;
41817;SDS011;27493;51.730;5.294;2023-02-28T03:02:30;9.70;;;5.07;;
41817;SDS011;27493;51.730;5.294;2023-02-28T03:04:59;6.10;;;4.80;;
41817;SDS011;27493;51.730;5.294;2023-02-28T03:07:25;8.53;;;5.07;;
41817;SDS011;27493;51.730;5.294;2023-02-28T03:09:51;10.00;;;5.70;;
41817;SDS011;27493;51.730;5.294;2023-02-28T03:12:17;10.00;;;5.17;;
41817;SDS011;27493;51.730;5.294;2023-02-28T03:14:46;8.33;;;5.60;;
41817;SDS011;27493;51.730;5.294;2023-02-28T03:17:25;7.73;;;5.20;;
41817;SDS011;27493;51.730;5.294;2023-02-28T03:29:51;7.97;;;4.93;;
41817;SDS011;27493;51.730;5.294;2023-02-28T03:32:24;8.90;;;5.30;;
41817;SDS011;27493;51.730;5.294;2023-02-28T03:37:23;7.30;;;5.13;;
41817;SDS011;27493;51.730;5.294;2023-02-28T03:39:54;7.13;;;5.20;;
41817;SDS011;27493;51.730;5.294;2023-02-28T03:42:21;7.97;;;5.43;;
41817;SDS011;27493;51.730;5.294;2023-02-28T03:44:51;6.77;;;4.93;;
41817;SDS011;27493;51.730;5.294;2023-02-28T03:47:22;7.97;;;5.03;;
41817;SDS011;27493;51.730;5.294;2023-02-28T03:52:17;10.07;;;5.63;;
41817;SDS011;27493;51.730;5.294;2023-02-28T03:54:48;9.33;;;5.80;;
41817;SDS011;27493;51.730;5.294;2023-02-28T03:57:17;7.77;;;5.53;;
41817;SDS011;27493;51.730;5.294;2023-02-28T03:59:49;8.60;;;5.40;;
41817;SDS011;27493;51.730;5.294;2023-02-28T04:02:17;6.97;;;5.23;;
41817;SDS011;27493;51.730;5.294;2023-02-28T04:04:43;6.93;;;5.47;;
41817;SDS011;27493;51.730;5.294;2023-02-28T04:07:10;8.37;;;5.67;;
41817;SDS011;27493;51.730;5.294;2023-02-28T04:09:36;7.00;;;5.83;;
41817;SDS011;27493;51.730;5.294;2023-02-28T04:12:01;8.50;;;5.53;;
41817;SDS011;27493;51.730;5.294;2023-02-28T04:14:26;8.90;;;5.73;;
41817;SDS011;27493;51.730;5.294;2023-02-28T04:16:51;7.77;;;5.43;;
41817;SDS011;27493;51.730;5.294;2023-02-28T04:19:17;8.23;;;5.47;;
41817;SDS011;27493;51.730;5.294;2023-02-28T04:21:43;8.83;;;5.80;;
41817;SDS011;27493;51.730;5.294;2023-02-28T04:24:10;11.13;;;6.30;;
41817;SDS011;27493;51.730;5.294;2023-02-28T04:26:39;11.90;;;5.60;;
41817;SDS011;27493;51.730;5.294;2023-02-28T04:29:05;11.43;;;5.47;;
41817;SDS011;27493;51.730;5.294;2023-02-28T04:31:30;8.53;;;5.60;;
41817;SDS011;27493;51.730;5.294;2023-02-28T04:33:56;10.13;;;5.57;;
41817;SDS011;27493;51.730;5.294;2023-02-28T04:36:21;5.93;;;5.10;;
41817;SDS011;27493;51.730;5.294;2023-02-28T04:38:48;7.03;;;5.57;;
41817;SDS011;27493;51.730;5.294;2023-02-28T04:41:13;7.70;;;5.10;;
41817;SDS011;27493;51.730;5.294;2023-02-28T04:43:38;6.33;;;5.47;;
41817;SDS011;27493;51.730;5.294;2023-02-28T04:46:04;8.80;;;5.47;;
41817;SDS011;27493;51.730;5.294;2023-02-28T04:48:31;8.53;;;4.83;;
41817;SDS011;27493;51.730;5.294;2023-02-28T04:51:03;8.13;;;4.87;;
41817;SDS011;27493;51.730;5.294;2023-02-28T04:53:29;7.27;;;5.23;;
41817;SDS011;27493;51.730;5.294;2023-02-28T04:55:54;6.43;;;5.13;;
41817;SDS011;27493;51.730;5.294;2023-02-28T04:58:20;8.33;;;5.10;;
41817;SDS011;27493;51.730;5.294;2023-02-28T05:00:47;6.57;;;4.97;;
41817;SDS011;27493;51.730;5.294;2023-02-28T05:03:13;6.50;;;4.73;;
41817;SDS011;27493;51.730;5.294;2023-02-28T05:05:38;9.23;;;5.07;;
41817;SDS011;27493;51.730;5.294;2023-02-28T05:08:03;8.30;;;5.03;;
41817;SDS011;27493;51.730;5.294;2023-02-28T05:10:30;5.63;;;4.30;;
41817;SDS011;27493;51.730;5.294;2023-02-28T05:12:55;5.73;;;4.87;;
41817;SDS011;27493;51.730;5.294;2023-02-28T05:15:20;5.37;;;4.50;;
41817;SDS011;27493;51.730;5.294;2023-02-28T05:17:46;5.53;;;4.83;;
41817;SDS011;27493;51.730;5.294;2023-02-28T05:20:11;5.43;;;4.20;;
41817;SDS011;27493;51.730;5.294;2023-02-28T05:22:38;6.70;;;4.87;;
41817;SDS011;27493;51.730;5.294;2023-02-28T05:25:03;5.97;;;4.50;;
41817;SDS011;27493;51.730;5.294;2023-02-28T05:27:29;9.33;;;4.50;;
41817;SDS011;27493;51.730;5.294;2023-02-28T05:29:54;7.77;;;4.57;;
41817;SDS011;27493;51.730;5.294;2023-02-28T05:32:20;6.90;;;4.63;;
41817;SDS011;27493;51.730;5.294;2023-02-28T05:34:45;7.27;;;4.93;;
41817;SDS011;27493;51.730;5.294;2023-02-28T05:37:13;7.77;;;3.97;;
41817;SDS011;27493;51.730;5.294;2023-02-28T05:39:39;5.63;;;3.90;;
41817;SDS011;27493;51.730;5.294;2023-02-28T05:42:04;6.80;;;3.93;;
41817;SDS011;27493;51.730;5.294;2023-02-28T05:44:29;6.33;;;4.30;;
41817;SDS011;27493;51.730;5.294;2023-02-28T05:46:54;5.73;;;4.10;;
41817;SDS011;27493;51.730;5.294;2023-02-28T05:49:20;5.87;;;4.53;;
41817;SDS011;27493;51.730;5.294;2023-02-28T05:51:45;5.30;;;4.17;;
41817;SDS011;27493;51.730;5.294;2023-02-28T05:54:10;6.90;;;4.00;;
41817;SDS011;27493;51.730;5.294;2023-02-28T05:56:35;7.87;;;4.33;;
41817;SDS011;27493;51.730;5.294;2023-02-28T05:59:02;9.07;;;4.60;;
41817;SDS011;27493;51.730;5.294;2023-02-28T06:01:32;6.20;;;4.70;;
41817;SDS011;27493;51.730;5.294;2023-02-28T06:03:58;5.33;;;3.80;;
41817;SDS011;27493;51.730;5.294;2023-02-28T06:06:23;7.97;;;4.10;;
41817;SDS011;27493;51.730;5.294;2023-02-28T06:08:48;5.77;;;4.30;;
41817;SDS011;27493;51.730;5.294;2023-02-28T06:11:13;4.20;;;3.70;;
41817;SDS011;27493;51.730;5.294;2023-02-28T06:13:39;6.03;;;3.90;;
41817;SDS011;27493;51.730;5.294;2023-02-28T06:16:04;5.53;;;4.00;;
41817;SDS011;27493;51.730;5.294;2023-02-28T06:18:29;6.37;;;3.67;;
41817;SDS011;27493;51.730;5.294;2023-02-28T06:20:55;6.40;;;4.00;;
41817;SDS011;27493;51.730;5.294;2023-02-28T06:23:20;7.47;;;3.40;;
41817;SDS011;27493;51.730;5.294;2023-02-28T06:25:46;7.77;;;3.83;;
41817;SDS011;27493;51.730;5.294;2023-02-28T06:28:11;4.93;;;3.73;;
41817;SDS011;27493;51.730;5.294;2023-02-28T06:30:37;5.53;;;3.30;;
41817;SDS011;27493;51.730;5.294;2023-02-28T06:33:02;6.10;;;3.30;;
41817;SDS011;27493;51.730;5.294;2023-02-28T06:35:27;6.07;;;3.63;;
41817;SDS011;27493;51.730;5.294;2023-02-28T06:37:52;6.50;;;3.40;;
41817;SDS011;27493;51.730;5.294;2023-02-28T06:40:18;6.30;;;3.70;;
41817;SDS011;27493;51.730;5.294;2023-02-28T06:42:43;7.57;;;4.10;;
41817;SDS011;27493;51.730;5.294;2023-02-28T06:45:09;7.73;;;3.93;;
41817;SDS011;27493;51.730;5.294;2023-02-28T06:47:34;4.90;;;3.43;;
41817;SDS011;27493;51.730;5.294;2023-02-28T06:50:00;5.23;;;3.57;;
41817;SDS011;27493;51.730;5.294;2023-02-28T06:52:26;6.27;;;3.57;;
41817;SDS011;27493;51.730;5.294;2023-02-28T06:54:51;6.77;;;4.53;;
41817;SDS011;27493;51.730;5.294;2023-02-28T06:57:25;5.40;;;3.37;;
41817;SDS011;27493;51.730;5.294;2023-02-28T06:59:50;8.33;;;4.20;;
41817;SDS011;27493;51.730;5.294;2023-02-28T07:02:15;5.10;;;3.50;;
41817;SDS011;27493;51.730;5.294;2023-02-28T07:04:40;4.93;;;2.90;;
41817;SDS011;27493;51.730;5.294;2023-02-28T07:07:09;5.40;;;3.50;;
41817;SDS011;27493;51.730;5.294;2023-02-28T07:09:34;7.57;;;3.50;;
41817;SDS011;27493;51.730;5.294;2023-02-28T07:12:00;4.07;;;3.20;;
41817;SDS011;27493;51.730;5.294;2023-02-28T07:14:25;4.97;;;3.83;;
41817;SDS011;27493;51.730;5.294;2023-02-28T07:16:50;5.57;;;3.60;;
41817;SDS011;27493;51.730;5.294;2023-02-28T07:19:16;4.93;;;3.23;;
41817;SDS011;27493;51.730;5.294;2023-02-28T07:21:41;5.23;;;3.63;;
41817;SDS011;27493;51.730;5.294;2023-02-28T07:24:06;4.87;;;3.40;;
41817;SDS011;27493;51.730;5.294;2023-02-28T07:26:32;4.03;;;3.20;;
41817;SDS011;27493;51.730;5.294;2023-02-28T07:28:59;5.50;;;3.20;;
41817;SDS011;27493;51.730;5.294;2023-02-28T07:31:24;5.53;;;3.03;;
41817;SDS011;27493;51.730;5.294;2023-02-28T07:33:49;3.77;;;2.83;;
41817;SDS011;27493;51.730;5.294;2023-02-28T07:36:15;5.17;;;3.20;;
41817;SDS011;27493;51.730;5.294;2023-02-28T07:38:44;5.10;;;2.90;;
41817;SDS011;27493;51.730;5.294;2023-02-28T07:41:09;4.20;;;3.27;;
41817;SDS011;27493;51.730;5.294;2023-02-28T07:43:34;4.70;;;3.23;;
41817;SDS011;27493;51.730;5.294;2023-02-28T07:48:28;6.43;;;3.37;;
41817;SDS011;27493;51.730;5.294;2023-02-28T07:50:54;8.87;;;3.37;;
41817;SDS011;27493;51.730;5.294;2023-02-28T07:53:20;3.60;;;3.00;;
41817;SDS011;27493;51.730;5.294;2023-02-28T07:55:45;4.90;;;3.63;;
41817;SDS011;27493;51.730;5.294;2023-02-28T07:58:10;4.10;;;3.37;;
41817;SDS011;27493;51.730;5.294;2023-02-28T08:00:35;5.63;;;3.60;;
41817;SDS011;27493;51.730;5.294;2023-02-28T08:03:01;4.37;;;3.27;;
41817;SDS011;27493;51.730;5.294;2023-02-28T08:05:26;4.97;;;3.70;;
41817;SDS011;27493;51.730;5.294;2023-02-28T08:07:51;5.33;;;3.27;;
41817;SDS011;27493;51.730;5.294;2023-02-28T08:10:16;5.73;;;3.07;;
41817;SDS011;27493;51.730;5.294;2023-02-28T08:12:41;5.43;;;3.70;;
41817;SDS011;27493;51.730;5.294;2023-02-28T08:15:07;7.00;;;2.90;;
41817;SDS011;27493;51.730;5.294;2023-02-28T08:17:32;3.40;;;3.10;;
41817;SDS011;27493;51.730;5.294;2023-02-28T08:19:57;4.37;;;3.10;;
41817;SDS011;27493;51.730;5.294;2023-02-28T08:22:22;5.03;;;3.17;;
41817;SDS011;27493;51.730;5.294;2023-02-28T08:24:48;7.20;;;3.50;;
41817;SDS011;27493;51.730;5.294;2023-02-28T08:27:14;3.40;;;3.10;;
41817;SDS011;27493;51.730;5.294;2023-02-28T08:29:39;3.50;;;3.13;;
41817;SDS011;27493;51.730;5.294;2023-02-28T08:32:05;4.20;;;2.90;;
41817;SDS011;27493;51.730;5.294;2023-02-28T08:34:30;1.97;;;1.60;;
41817;SDS011;27493;51.730;5.294;2023-02-28T08:36:56;1.90;;;1.60;;
41817;SDS011;27493;51.730;5.294;2023-02-28T08:39:21;3.90;;;1.90;;
41817;SDS011;27493;51.730;5.294;2023-02-28T08:41:46;3.20;;;1.90;;
41817;SDS011;27493;51.730;5.294;2023-02-28T08:44:19;2.63;;;1.83;;
41817;SDS011;27493;51.730;5.294;2023-02-28T08:46:44;3.60;;;1.83;;
41817;SDS011;27493;51.730;5.294;2023-02-28T08:49:09;2.00;;;1.73;;
41817;SDS011;27493;51.730;5.294;2023-02-28T08:51:35;2.03;;;1.80;;
41817;SDS011;27493;51.730;5.294;2023-02-28T08:54:00;2.10;;;1.87;;
41817;SDS011;27493;51.730;5.294;2023-02-28T08:56:26;2.40;;;1.87;;
41817;SDS011;27493;51.730;5.294;2023-02-28T08:58:53;1.93;;;1.67;;
41817;SDS011;27493;51.730;5.294;2023-02-28T09:01:21;2.30;;;2.10;;
41817;SDS011;27493;51.730;5.294;2023-02-28T09:03:47;2.43;;;2.23;;
41817;SDS011;27493;51.730;5.294;2023-02-28T09:06:13;2.60;;;2.30;;
41817;SDS011;27493;51.730;5.294;2023-02-28T09:08:38;2.60;;;2.20;;
41817;SDS011;27493;51.730;5.294;2023-02-28T09:11:04;2.90;;;2.03;;
41817;SDS011;27493;51.730;5.294;2023-02-28T09:13:29;2.60;;;2.20;;
41817;SDS011;27493;51.730;5.294;2023-02-28T09:15:57;2.20;;;2.00;;
41817;SDS011;27493;51.730;5.294;2023-02-28T09:18:22;2.40;;;2.00;;
41817;SDS011;27493;51.730;5.294;2023-02-28T09:20:47;2.93;;;2.27;;
41817;SDS011;27493;51.730;5.294;2023-02-28T09:23:13;3.50;;;2.37;;
41817;SDS011;27493;51.730;5.294;2023-02-28T09:25:40;2.93;;;2.13;;
41817;SDS011;27493;51.730;5.294;2023-02-28T09:28:09;3.87;;;2.50;;
41817;SDS011;27493;51.730;5.294;2023-02-28T09:30:34;2.20;;;2.00;;
41817;SDS011;27493;51.730;5.294;2023-02-28T09:32:59;2.30;;;2.10;;
41817;SDS011;27493;51.730;5.294;2023-02-28T09:35:25;2.90;;;2.20;;
41817;SDS011;27493;51.730;5.294;2023-02-28T09:37:51;2.53;;;2.10;;
41817;SDS011;27493;51.730;5.294;2023-02-28T09:40:17;2.77;;;2.10;;
41817;SDS011;27493;51.730;5.294;2023-02-28T09:42:44;2.27;;;2.10;;
41817;SDS011;27493;51.730;5.294;2023-02-28T09:45:14;2.50;;;2.30;;
41817;SDS011;27493;51.730;5.294;2023-02-28T09:47:41;2.80;;;2.17;;
41817;SDS011;27493;51.730;5.294;2023-02-28T09:50:16;2.03;;;1.93;;
41817;SDS011;27493;51.730;5.294;2023-02-28T09:52:42;2.37;;;2.00;;
41817;SDS011;27493;51.730;5.294;2023-02-28T09:55:51;2.80;;;2.10;;
41817;SDS011;27493;51.730;5.294;2023-02-28T09:57:57;2.73;;;2.23;;
41817;SDS011;27493;51.730;5.294;2023-02-28T10:03:28;2.73;;;2.17;;
41817;SDS011;27493;51.730;5.294;2023-02-28T10:08:58;2.87;;;2.00;;
41817;SDS011;27493;51.730;5.294;2023-02-28T10:11:25;4.77;;;2.00;;
41817;SDS011;27493;51.730;5.294;2023-02-28T10:13:52;2.17;;;1.97;;
41817;SDS011;27493;51.730;5.294;2023-02-28T10:18:47;3.00;;;2.20;;
41817;SDS011;27493;51.730;5.294;2023-02-28T10:21:35;2.77;;;2.20;;
41817;SDS011;27493;51.730;5.294;2023-02-28T10:24:02;2.80;;;1.97;;
41817;SDS011;27493;51.730;5.294;2023-02-28T10:26:28;2.67;;;2.07;;
41817;SDS011;27493;51.730;5.294;2023-02-28T10:28:54;2.67;;;2.00;;
41817;SDS011;27493;51.730;5.294;2023-02-28T10:31:20;2.80;;;2.10;;
41817;SDS011;27493;51.730;5.294;2023-02-28T10:33:46;3.10;;;2.23;;
41817;SDS011;27493;51.730;5.294;2023-02-28T10:36:13;2.13;;;1.90;;
41817;SDS011;27493;51.730;5.294;2023-02-28T10:38:39;3.97;;;1.90;;
41817;SDS011;27493;51.730;5.294;2023-02-28T10:41:08;2.53;;;1.90;;
41817;SDS011;27493;51.730;5.294;2023-02-28T10:43:33;3.50;;;2.77;;
41817;SDS011;27493;51.730;5.294;2023-02-28T10:46:01;1.90;;;1.80;;
41817;SDS011;27493;51.730;5.294;2023-02-28T10:48:37;2.37;;;2.10;;
41817;SDS011;27493;51.730;5.294;2023-02-28T10:51:02;2.37;;;2.17;;
41817;SDS011;27493;51.730;5.294;2023-02-28T10:53:33;2.30;;;2.10;;
41817;SDS011;27493;51.730;5.294;2023-02-28T10:58:29;1.97;;;1.77;;
41817;SDS011;27493;51.730;5.294;2023-02-28T11:00:54;2.23;;;2.03;;
41817;SDS011;27493;51.730;5.294;2023-02-28T11:05:54;3.97;;;2.00;;
41817;SDS011;27493;51.730;5.294;2023-02-28T11:08:19;2.60;;;1.70;;
41817;SDS011;27493;51.730;5.294;2023-02-28T11:10:46;3.57;;;2.10;;
41817;SDS011;27493;51.730;5.294;2023-02-28T11:13:18;2.10;;;1.90;;
41817;SDS011;27493;51.730;5.294;2023-02-28T11:15:49;2.17;;;1.97;;
41817;SDS011;27493;51.730;5.294;2023-02-28T11:18:23;3.30;;;2.00;;
41817;SDS011;27493;51.730;5.294;2023-02-28T11:20:50;2.20;;;2.00;;
41817;SDS011;27493;51.730;5.294;2023-02-28T11:23:16;2.47;;;2.20;;
41817;SDS011;27493;51.730;5.294;2023-02-28T11:25:45;2.70;;;1.97;;
41817;SDS011;27493;51.730;5.294;2023-02-28T11:28:25;2.13;;;1.90;;
41817;SDS011;27493;51.730;5.294;2023-02-28T11:33:27;2.67;;;2.03;;
41817;SDS011;27493;51.730;5.294;2023-02-28T11:35:53;2.23;;;1.90;;
41817;SDS011;27493;51.730;5.294;2023-02-28T11:38:23;2.10;;;1.70;;
41817;SDS011;27493;51.730;5.294;2023-02-28T11:48:33;1.93;;;1.73;;
41817;SDS011;27493;51.730;5.294;2023-02-28T11:53:39;2.10;;;1.90;;
41817;SDS011;27493;51.730;5.294;2023-02-28T11:56:54;2.10;;;1.90;;
41817;SDS011;27493;51.730;5.294;2023-02-28T12:01:35;2.38;;;1.88;;
41817;SDS011;27493;51.730;5.294;2023-02-28T12:07:06;1.80;;;1.70;;
41817;SDS011;27493;51.730;5.294;2023-02-28T12:09:38;3.03;;;1.93;;
41817;SDS011;27493;51.730;5.294;2023-02-28T12:19:29;2.50;;;2.20;;
41817;SDS011;27493;51.730;5.294;2023-02-28T12:22:09;2.50;;;2.30;;
41817;SDS011;27493;51.730;5.294;2023-02-28T12:27:12;1.97;;;1.83;;
41817;SDS011;27493;51.730;5.294;2023-02-28T12:29:49;3.00;;;2.30;;
41817;SDS011;27493;51.730;5.294;2023-02-28T12:32:26;2.30;;;2.10;;
41817;SDS011;27493;51.730;5.294;2023-02-28T12:35:02;2.43;;;2.00;;
41817;SDS011;27493;51.730;5.294;2023-02-28T12:37:31;1.90;;;1.80;;
41817;SDS011;27493;51.730;5.294;2023-02-28T12:40:00;3.03;;;2.40;;
41817;SDS011;27493;51.730;5.294;2023-02-28T12:42:31;3.07;;;2.10;;
41817;SDS011;27493;51.730;5.294;2023-02-28T12:44:58;3.27;;;2.23;;
41817;SDS011;27493;51.730;5.294;2023-02-28T12:47:24;1.97;;;1.87;;
41817;SDS011;27493;51.730;5.294;2023-02-28T12:49:50;3.40;;;2.20;;
41817;SDS011;27493;51.730;5.294;2023-02-28T12:52:18;3.63;;;2.17;;
41817;SDS011;27493;51.730;5.294;2023-02-28T12:54:46;3.77;;;2.87;;
41817;SDS011;27493;51.730;5.294;2023-02-28T12:57:34;5.57;;;2.63;;
41817;SDS011;27493;51.730;5.294;2023-02-28T13:00:04;2.50;;;2.30;;
41817;SDS011;27493;51.730;5.294;2023-02-28T13:07:58;2.57;;;2.30;;
41817;SDS011;27493;51.730;5.294;2023-02-28T13:10:44;3.80;;;2.37;;
41817;SDS011;27493;51.730;5.294;2023-02-28T13:13:14;2.50;;;2.30;;
41817;SDS011;27493;51.730;5.294;2023-02-28T13:15:41;3.53;;;2.03;;
41817;SDS011;27493;51.730;5.294;2023-02-28T13:19:07;3.37;;;2.20;;
41817;SDS011;27493;51.730;5.294;2023-02-28T13:21:10;2.27;;;2.00;;
41817;SDS011;27493;51.730;5.294;2023-02-28T13:26:22;3.27;;;2.40;;
41817;SDS011;27493;51.730;5.294;2023-02-28T13:31:22;3.37;;;2.47;;
41817;SDS011;27493;51.730;5.294;2023-02-28T13:38:44;2.73;;;2.53;;
41817;SDS011;27493;51.730;5.294;2023-02-28T13:44:16;2.47;;;2.20;;
41817;SDS011;27493;51.730;5.294;2023-02-28T13:49:25;2.80;;;2.50;;
41817;SDS011;27493;51.730;5.294;2023-02-28T13:51:51;3.97;;;2.77;;
41817;SDS011;27493;51.730;5.294;2023-02-28T13:57:04;3.23;;;2.77;;
41817;SDS011;27493;51.730;5.294;2023-02-28T13:59:36;2.93;;;2.63;;
41817;SDS011;27493;51.730;5.294;2023-02-28T14:04:45;3.03;;;2.60;;
41817;SDS011;27493;51.730;5.294;2023-02-28T14:07:19;3.53;;;2.43;;
41817;SDS011;27493;51.730;5.294;2023-02-28T14:09:45;2.90;;;2.40;;
41817;SDS011;27493;51.730;5.294;2023-02-28T14:14:56;2.60;;;2.40;;
41817;SDS011;27493;51.730;5.294;2023-02-28T14:17:21;3.07;;;2.40;;
41817;SDS011;27493;51.730;5.294;2023-02-28T14:19:47;4.80;;;2.53;;
41817;SDS011;27493;51.730;5.294;2023-02-28T14:25:18;3.63;;;2.60;;
41817;SDS011;27493;51.730;5.294;2023-02-28T14:27:48;3.37;;;2.73;;
41817;SDS011;27493;51.730;5.294;2023-02-28T14:35:34;3.53;;;2.70;;
41817;SDS011;27493;51.730;5.294;2023-02-28T14:38:04;4.80;;;2.60;;
41817;SDS011;27493;51.730;5.294;2023-02-28T14:40:31;4.63;;;2.93;;
41817;SDS011;27493;51.730;5.294;2023-02-28T14:43:01;2.77;;;2.50;;
41817;SDS011;27493;51.730;5.294;2023-02-28T14:45:27;3.57;;;2.60;;
41817;SDS011;27493;51.730;5.294;2023-02-28T14:47:53;3.97;;;2.63;;
41817;SDS011;27493;51.730;5.294;2023-02-28T14:50:20;4.80;;;3.33;;
41817;SDS011;27493;51.730;5.294;2023-02-28T14:52:46;4.57;;;2.80;;
41817;SDS011;27493;51.730;5.294;2023-02-28T14:55:15;4.33;;;2.90;;
41817;SDS011;27493;51.730;5.294;2023-02-28T14:57:44;2.77;;;2.47;;
41817;SDS011;27493;51.730;5.294;2023-02-28T15:00:25;2.20;;;2.00;;
41817;SDS011;27493;51.730;5.294;2023-02-28T15:02:51;3.33;;;2.73;;
41817;SDS011;27493;51.730;5.294;2023-02-28T15:05:20;4.53;;;2.73;;
41817;SDS011;27493;51.730;5.294;2023-02-28T15:07:47;3.60;;;2.20;;
41817;SDS011;27493;51.730;5.294;2023-02-28T15:10:17;3.10;;;2.17;;
41817;SDS011;27493;51.730;5.294;2023-02-28T15:12:45;3.73;;;2.50;;
41817;SDS011;27493;51.730;5.294;2023-02-28T15:15:17;2.43;;;2.10;;
41817;SDS011;27493;51.730;5.294;2023-02-28T15:17:46;2.40;;;1.97;;
41817;SDS011;27493;51.730;5.294;2023-02-28T15:20:13;3.13;;;2.20;;
41817;SDS011;27493;51.730;5.294;2023-02-28T15:22:40;4.50;;;2.40;;
41817;SDS011;27493;51.730;5.294;2023-02-28T15:25:06;3.20;;;2.20;;
41817;SDS011;27493;51.730;5.294;2023-02-28T15:27:33;3.93;;;2.60;;
41817;SDS011;27493;51.730;5.294;2023-02-28T15:30:00;2.40;;;2.20;;
41817;SDS011;27493;51.730;5.294;2023-02-28T15:32:29;3.37;;;2.53;;
41817;SDS011;27493;51.730;5.294;2023-02-28T15:34:56;3.03;;;2.27;;
41817;SDS011;27493;51.730;5.294;2023-02-28T15:37:26;3.87;;;2.30;;
41817;SDS011;27493;51.730;5.294;2023-02-28T15:39:52;3.90;;;2.43;;
41817;SDS011;27493;51.730;5.294;2023-02-28T15:42:18;5.17;;;2.90;;
41817;SDS011;27493;51.730;5.294;2023-02-28T15:44:44;3.17;;;2.37;;
41817;SDS011;27493;51.730;5.294;2023-02-28T15:47:19;3.37;;;2.40;;
41817;SDS011;27493;51.730;5.294;2023-02-28T15:49:45;3.27;;;2.63;;
41817;SDS011;27493;51.730;5.294;2023-02-28T15:52:16;3.30;;;2.40;;
41817;SDS011;27493;51.730;5.294;2023-02-28T15:54:42;3.00;;;2.70;;
41817;SDS011;27493;51.730;5.294;2023-02-28T15:57:12;3.80;;;2.80;;
41817;SDS011;27493;51.730;5.294;2023-02-28T15:59:38;3.07;;;2.33;;
41817;SDS011;27493;51.730;5.294;2023-02-28T16:04:29;2.90;;;2.60;;
41817;SDS011;27493;51.730;5.294;2023-02-28T16:09:24;7.33;;;2.93;;
41817;SDS011;27493;51.730;5.294;2023-02-28T16:11:52;2.77;;;2.47;;
41817;SDS011;27493;51.730;5.294;2023-02-28T16:14:27;4.63;;;2.60;;
41817;SDS011;27493;51.730;5.294;2023-02-28T16:16:55;3.50;;;2.57;;
41817;SDS011;27493;51.730;5.294;2023-02-28T16:19:21;2.67;;;2.40;;
41817;SDS011;27493;51.730;5.294;2023-02-28T16:21:47;4.37;;;2.67;;
41817;SDS011;27493;51.730;5.294;2023-02-28T16:24:12;2.80;;;2.60;;
41817;SDS011;27493;51.730;5.294;2023-02-28T16:26:39;3.90;;;2.63;;
41817;SDS011;27493;51.730;5.294;2023-02-28T16:29:04;2.47;;;2.27;;
41817;SDS011;27493;51.730;5.294;2023-02-28T16:31:30;3.77;;;2.57;;
41817;SDS011;27493;51.730;5.294;2023-02-28T16:33:56;4.47;;;2.40;;
41817;SDS011;27493;51.730;5.294;2023-02-28T16:36:22;2.97;;;2.67;;
41817;SDS011;27493;51.730;5.294;2023-02-28T16:38:50;3.73;;;3.00;;
41817;SDS011;27493;51.730;5.294;2023-02-28T16:41:16;3.10;;;2.40;;
41817;SDS011;27493;51.730;5.294;2023-02-28T16:43:44;3.80;;;2.60;;
41817;SDS011;27493;51.730;5.294;2023-02-28T16:46:09;4.10;;;2.70;;
41817;SDS011;27493;51.730;5.294;2023-02-28T16:48:35;3.00;;;2.70;;
41817;SDS011;27493;51.730;5.294;2023-02-28T16:51:01;4.67;;;3.40;;